createdAt,value
2022-08-01T00:03:38.302Z,24.08
2022-08-01T00:08:38.190Z,23.97
2022-08-01T00:13:38.147Z,23.82
2022-08-01T00:18:38.064Z,23.43
2022-08-01T00:23:38.110Z,23.43
2022-08-01T00:28:52.854Z,23.32
2022-08-01T00:33:38.253Z,23.07
2022-08-01T00:38:37.857Z,23.42
2022-08-01T00:43:37.805Z,23.14
2022-08-01T00:48:37.717Z,23.47
2022-08-01T00:53:51.380Z,23.53
2022-08-01T00:58:38.599Z,23.14
2022-08-01T01:03:58.116Z,22.77
2022-08-01T01:08:38.468Z,22.39
2022-08-01T01:13:48.613Z,22.57
2022-08-01T01:18:38.345Z,22.77
2022-08-01T01:23:37.281Z,22.53
2022-08-01T01:28:37.190Z,22.01
2022-08-01T01:33:37.142Z,22.07
2022-08-01T01:38:38.249Z,21.88
2022-08-01T01:43:37.003Z,21.74
2022-08-01T01:48:36.945Z,21.75
2022-08-01T01:53:36.963Z,21.60
2022-08-01T01:58:36.814Z,21.81
2022-08-01T02:03:36.736Z,21.56
2022-08-01T02:08:36.665Z,21.76
2022-08-01T02:13:36.626Z,21.74
2022-08-01T02:18:36.537Z,21.99
2022-08-01T02:23:36.480Z,22.38
2022-08-01T02:28:36.419Z,22.41
2022-08-01T02:33:36.351Z,22.02
2022-08-01T02:38:36.281Z,22.09
2022-08-01T02:43:36.490Z,22.12
2022-08-01T02:48:36.170Z,22.20
2022-08-01T02:53:43.801Z,22.17
2022-08-01T02:58:37.024Z,22.20
2022-08-01T03:03:35.991Z,22.12
2022-08-01T03:08:35.893Z,21.83
2022-08-01T03:13:35.875Z,21.71
2022-08-01T03:18:35.763Z,21.63
2022-08-01T03:23:38.299Z,21.60
2022-08-01T03:28:35.660Z,21.75
2022-08-01T03:33:35.566Z,21.81
2022-08-01T03:38:35.498Z,22.02
2022-08-01T03:43:35.441Z,21.90
2022-08-01T03:48:35.401Z,22.37
2022-08-01T03:53:35.323Z,22.39
2022-08-01T03:58:35.219Z,22.01
2022-08-01T04:03:35.182Z,21.91
2022-08-01T04:08:36.113Z,21.56
2022-08-01T04:13:36.842Z,21.29
2022-08-01T04:18:34.965Z,21.23
2022-08-01T04:23:34.905Z,21.35
2022-08-01T04:28:34.847Z,21.46
2022-08-01T04:33:34.816Z,21.66
2022-08-01T04:38:34.753Z,22.07
2022-08-01T04:43:34.666Z,22.44
2022-08-01T04:48:34.611Z,22.54
2022-08-01T04:53:34.538Z,22.83
2022-08-01T04:58:34.451Z,23.04
2022-08-01T05:03:38.686Z,23.01
2022-08-01T05:08:34.344Z,22.89
2022-08-01T05:13:34.251Z,23.02
2022-08-01T05:18:34.173Z,22.90
2022-08-01T05:23:43.185Z,22.83
2022-08-01T05:28:35.052Z,22.74
2022-08-01T05:33:34.030Z,22.74
2022-08-01T05:38:33.945Z,23.09
2022-08-01T05:43:33.864Z,23.46
2022-08-01T05:48:33.819Z,24.37
2022-08-01T05:53:33.745Z,24.24
2022-08-01T05:58:34.058Z,23.77
2022-08-01T06:03:33.619Z,23.45
2022-08-01T06:08:33.546Z,23.24
2022-08-01T06:13:33.461Z,23.27
2022-08-01T06:18:34.433Z,23.07
2022-08-01T06:23:33.340Z,23.22
2022-08-01T06:28:33.287Z,22.97
2022-08-01T06:33:33.235Z,22.65
2022-08-01T06:38:33.145Z,22.74
2022-08-01T06:43:33.090Z,22.84
2022-08-01T06:48:33.015Z,22.67
2022-08-01T06:53:36.562Z,22.59
2022-08-01T06:58:32.875Z,22.50
2022-08-01T07:03:53.013Z,22.12
2022-08-01T07:08:33.757Z,21.98
2022-08-01T07:13:36.828Z,22.10
2022-08-01T07:18:33.629Z,21.67
2022-08-01T07:23:34.122Z,21.26
2022-08-01T07:28:32.498Z,21.30
2022-08-01T07:33:48.407Z,21.54
2022-08-01T07:38:33.381Z,21.66
2022-08-01T07:43:32.280Z,22.09
2022-08-01T07:48:32.211Z,22.27
2022-08-01T07:53:32.179Z,22.75
2022-08-01T07:58:32.091Z,23.60
2022-08-01T08:03:32.023Z,24.57
2022-08-01T08:08:32.073Z,25.00
2022-08-01T08:13:31.905Z,25.31
2022-08-01T08:18:31.821Z,25.53
2022-08-01T08:23:42.655Z,25.72
2022-08-01T08:28:32.709Z,25.57
2022-08-01T08:33:31.638Z,25.86
2022-08-01T08:38:31.595Z,26.52
2022-08-01T08:43:31.523Z,24.94
2022-08-01T08:48:31.449Z,24.34
2022-08-01T08:53:34.798Z,24.83
2022-08-01T08:58:31.950Z,25.62
2022-08-01T09:03:31.273Z,26.11
2022-08-01T09:08:31.171Z,25.90
2022-08-01T09:13:31.157Z,26.46
2022-08-01T09:18:31.109Z,26.89
2022-08-01T09:23:30.998Z,26.87
2022-08-01T09:28:30.994Z,26.80
2022-08-01T09:33:35.404Z,27.16
2022-08-01T09:38:31.798Z,26.68
2022-08-01T09:43:31.398Z,27.71
2022-08-01T09:48:30.672Z,27.67
2022-08-01T09:53:31.135Z,28.19
2022-08-01T09:58:31.535Z,27.70
2022-08-01T10:03:30.599Z,27.57
2022-08-01T10:08:30.456Z,27.28
2022-08-01T10:13:36.606Z,27.19
2022-08-01T10:18:31.330Z,26.84
2022-08-01T10:23:40.053Z,26.84
2022-08-01T10:28:31.156Z,27.21
2022-08-01T10:33:50.875Z,27.38
2022-08-01T10:38:31.038Z,27.82
2022-08-01T10:43:29.986Z,27.13
2022-08-01T10:48:29.950Z,27.71
2022-08-01T10:53:31.442Z,28.26
2022-08-01T10:58:30.856Z,28.56
2022-08-01T11:03:54.479Z,28.29
2022-08-01T11:08:30.638Z,28.26
2022-08-01T11:13:32.340Z,28.13
2022-08-01T11:18:30.771Z,27.96
2022-08-01T11:23:29.804Z,28.84
2022-08-01T11:28:34.847Z,29.18
2022-08-01T11:33:30.319Z,29.56
2022-08-01T11:38:29.274Z,28.90
2022-08-01T11:43:29.184Z,28.88
2022-08-01T11:48:29.147Z,27.79
2022-08-01T11:53:29.076Z,26.37
2022-08-01T11:58:30.649Z,25.89
2022-08-01T12:03:33.434Z,25.65
2022-08-01T12:08:29.896Z,26.58
2022-08-01T12:13:28.820Z,26.42
2022-08-01T12:18:28.740Z,27.43
2022-08-01T12:23:28.691Z,27.67
2022-08-01T12:28:28.788Z,26.84
2022-08-01T12:33:28.573Z,26.65
2022-08-01T12:38:28.511Z,27.01
2022-08-01T12:43:29.606Z,27.95
2022-08-01T12:48:28.386Z,28.09
2022-08-01T12:53:40.610Z,28.09
2022-08-01T12:58:29.229Z,27.89
2022-08-01T13:03:28.201Z,27.73
2022-08-01T13:08:28.100Z,27.88
2022-08-01T13:13:28.887Z,27.89
2022-08-01T13:18:27.970Z,28.19
2022-08-01T13:24:02.084Z,28.01
2022-08-01T13:28:28.897Z,27.96
2022-08-01T13:33:27.847Z,27.77
2022-08-01T13:38:27.712Z,27.47
2022-08-01T13:43:31.677Z,27.84
2022-08-01T13:48:28.587Z,28.19
2022-08-01T13:53:27.509Z,28.41
2022-08-01T13:58:27.460Z,27.77
2022-08-01T14:03:33.861Z,27.59
2022-08-01T14:08:28.341Z,27.64
2022-08-01T14:13:32.159Z,27.74
2022-08-01T14:18:28.194Z,27.67
2022-08-01T14:23:27.114Z,27.71
2022-08-01T14:28:27.061Z,27.91
2022-08-01T14:33:27.004Z,27.86
2022-08-01T14:38:31.507Z,28.26
2022-08-01T14:43:32.726Z,28.07
2022-08-01T14:48:27.794Z,27.57
2022-08-01T14:53:26.737Z,27.06
2022-08-01T14:58:26.650Z,26.89
2022-08-01T15:03:26.591Z,27.02
2022-08-01T15:08:26.533Z,27.26
2022-08-01T15:13:26.485Z,27.29
2022-08-01T15:18:26.429Z,27.16
2022-08-01T15:23:26.385Z,26.67
2022-08-01T15:28:26.285Z,26.68
2022-08-01T15:33:26.224Z,26.83
2022-08-01T15:38:26.153Z,26.98
2022-08-01T15:43:27.147Z,27.17
2022-08-01T15:48:26.036Z,26.81
2022-08-01T15:53:25.971Z,26.67
2022-08-01T15:58:25.895Z,26.57
2022-08-01T16:03:25.830Z,26.46
2022-08-01T16:08:25.768Z,26.24
2022-08-01T16:13:25.754Z,26.31
2022-08-01T16:18:25.726Z,26.46
2022-08-01T16:23:25.597Z,26.69
2022-08-01T16:28:25.489Z,26.80
2022-08-01T16:33:53.946Z,26.91
2022-08-01T16:38:26.388Z,26.73
2022-08-01T16:43:25.356Z,26.62
2022-08-01T16:48:25.282Z,26.59
2022-08-01T16:53:25.181Z,26.37
2022-08-01T16:58:27.633Z,26.11
2022-08-01T17:03:51.167Z,25.79
2022-08-01T17:08:26.034Z,25.75
2022-08-01T17:13:24.924Z,25.77
2022-08-01T17:18:24.894Z,26.01
2022-08-01T17:23:24.848Z,25.97
2022-08-01T17:28:24.708Z,25.93
2022-08-01T17:33:24.768Z,26.08
2022-08-01T17:38:25.595Z,25.93
2022-08-01T17:43:24.792Z,25.93
2022-08-01T17:48:24.494Z,25.77
2022-08-01T17:53:24.553Z,25.62
2022-08-01T17:58:50.851Z,25.43
2022-08-01T18:03:30.270Z,25.34
2022-08-01T18:08:25.317Z,25.19
2022-08-01T18:13:24.320Z,25.16
2022-08-01T18:18:32.762Z,25.10
2022-08-01T18:23:25.026Z,24.97
2022-08-01T18:28:32.852Z,24.83
2022-08-01T18:33:24.947Z,24.97
2022-08-01T18:38:24.428Z,24.60
2022-08-01T18:43:23.836Z,24.68
2022-08-01T18:48:23.807Z,24.37
2022-08-01T18:53:23.763Z,24.13
2022-08-01T18:58:23.599Z,24.24
2022-08-01T19:03:23.522Z,24.01
2022-08-01T19:08:23.404Z,23.94
2022-08-01T19:13:23.334Z,24.12
2022-08-01T19:18:23.295Z,23.90
2022-08-01T19:23:23.207Z,23.79
2022-08-01T19:28:23.146Z,23.64
2022-08-01T19:33:23.120Z,23.46
2022-08-01T19:38:23.054Z,23.82
2022-08-01T19:43:22.961Z,23.45
2022-08-01T19:48:22.899Z,23.45
2022-08-01T19:53:22.848Z,23.64
2022-08-01T19:58:27.521Z,23.76
2022-08-01T20:03:24.082Z,23.82
2022-08-01T20:08:22.634Z,23.45
2022-08-01T20:13:22.580Z,23.32
2022-08-01T20:18:22.627Z,22.83
2022-08-01T20:23:30.353Z,23.12
2022-08-01T20:28:22.500Z,22.90
2022-08-01T20:33:22.323Z,22.94
2022-08-01T20:38:23.256Z,23.35
2022-08-01T20:43:22.186Z,22.32
2022-08-01T20:48:22.182Z,23.09
2022-08-01T20:53:23.827Z,23.39
2022-08-01T20:58:21.987Z,23.76
2022-08-01T21:03:22.031Z,23.70
2022-08-01T21:08:35.190Z,23.52
2022-08-01T21:13:21.818Z,22.86
2022-08-01T21:18:21.728Z,22.59
2022-08-01T21:23:30.643Z,22.12
2022-08-01T21:28:21.584Z,21.63
2022-08-01T21:33:21.534Z,21.78
2022-08-01T21:38:21.680Z,22.10
2022-08-01T21:43:21.411Z,21.83
2022-08-01T21:48:21.326Z,21.88
2022-08-01T21:53:32.315Z,22.09
2022-08-01T21:58:22.197Z,21.92
2022-08-01T22:03:21.139Z,21.46
2022-08-01T22:08:21.538Z,21.30
2022-08-01T22:13:21.154Z,21.26
2022-08-01T22:18:20.928Z,21.04
2022-08-01T22:23:27.300Z,20.80
2022-08-01T22:28:20.806Z,21.92
2022-08-01T22:33:20.742Z,21.27
2022-08-01T22:38:20.914Z,20.81
2022-08-01T22:43:20.602Z,21.09
2022-08-01T22:48:20.543Z,20.84
2022-08-01T22:53:20.493Z,20.61
2022-08-01T22:58:20.432Z,21.23
2022-08-01T23:03:20.362Z,21.19
2022-08-01T23:08:20.293Z,20.31
2022-08-01T23:13:20.235Z,19.70
2022-08-01T23:18:20.204Z,20.28
2022-08-01T23:23:30.629Z,19.93
2022-08-01T23:28:21.006Z,20.21
2022-08-01T23:33:19.937Z,20.58
2022-08-01T23:38:19.887Z,19.95
2022-08-01T23:43:19.817Z,19.87
2022-08-01T23:48:19.746Z,19.69
2022-08-01T23:53:19.679Z,19.58
2022-08-01T23:58:19.609Z,19.83
